Time;durP1;ratioP1;P1;durP2;ratioP2;P2;SDS_P1;SDS_P2;PMS_P1;PMS_P2;Temp;Humidity;BMP_temperature;BMP_pressure;BME280_temperature;BME280_humidity;BME280_pressure;Samples;Min_cycle;Max_cycle;Signal;HPM_P1;HPM_P2
2022/11/27 00:01:11;;;;;;;4.72;1.48;;;3.00;99.90;;;;;;5090545;28;20046;-50
2022/11/27 00:03:39;;;;;;;3.58;1.02;;;3.10;99.90;;;;;;5096804;28;20525;-51
2022/11/27 00:06:10;;;;;;;3.63;1.30;;;3.00;99.90;;;;;;5102252;28;20411;-48
2022/11/27 00:08:37;;;;;;;6.15;1.38;;;3.00;99.90;;;;;;5071691;28;20102;-48
2022/11/27 00:11:09;;;;;;;3.22;1.85;;;2.90;99.90;;;;;;5073743;28;20048;-49
2022/11/27 00:13:36;;;;;;;5.72;1.48;;;2.80;99.90;;;;;;5091502;28;20044;-49
2022/11/27 00:16:03;;;;;;;;;;;2.70;99.90;;;;;;5085497;28;20079;-52
2022/11/27 00:18:31;;;;;;;2.33;1.45;;;2.70;99.90;;;;;;5073245;28;20276;-49
2022/11/27 00:21:04;;;;;;;;;;;2.70;99.90;;;;;;5089771;28;20048;-50
2022/11/27 00:23:32;;;;;;;2.08;1.20;;;2.70;99.90;;;;;;5088592;28;19961;-49
2022/11/27 00:25:59;;;;;;;4.22;1.70;;;2.70;99.90;;;;;;5088550;28;20044;-50
2022/11/27 00:28:25;;;;;;;2.25;1.15;;;2.70;99.90;;;;;;5088462;28;20032;-50
2022/11/27 00:30:52;;;;;;;1.77;1.10;;;2.80;99.90;;;;;;5088839;28;20055;-50
2022/11/27 00:33:19;;;;;;;4.07;1.13;;;2.70;99.90;;;;;;5090415;28;20054;-50
2022/11/27 00:35:45;;;;;;;2.53;1.60;;;2.60;99.90;;;;;;5086634;28;20389;-51
2022/11/27 00:38:12;;;;;;;4.18;1.48;;;2.60;99.90;;;;;;5090295;28;20064;-50
2022/11/27 00:40:39;;;;;;;1.63;0.80;;;2.60;99.90;;;;;;5089401;28;20048;-51
2022/11/27 00:43:06;;;;;;;3.40;1.85;;;2.60;99.90;;;;;;5086292;28;20514;-52
2022/11/27 00:45:32;;;;;;;1.98;1.13;;;2.50;99.90;;;;;;5089760;28;20040;-52
2022/11/27 00:47:59;;;;;;;7.18;1.60;;;2.50;99.90;;;;;;5072046;28;20172;-52
2022/11/27 00:50:27;;;;;;;2.70;1.52;;;2.50;99.90;;;;;;5087510;28;20059;-48
2022/11/27 00:52:54;;;;;;;3.78;1.90;;;2.50;99.90;;;;;;5089976;28;20045;-49
2022/11/27 00:55:21;;;;;;;5.70;1.15;;;2.40;99.90;;;;;;5071791;28;20446;-48
2022/11/27 00:57:47;;;;;;;2.55;1.30;;;2.40;99.90;;;;;;5090154;28;20067;-49
2022/11/27 01:00:15;;;;;;;2.83;1.48;;;2.40;99.90;;;;;;5088045;28;20476;-50
2022/11/27 01:02:41;;;;;;;;;;;2.30;99.90;;;;;;5090828;28;20125;-48
2022/11/27 01:05:08;;;;;;;5.95;2.08;;;2.20;99.90;;;;;;5089399;28;20442;-47
2022/11/27 01:07:35;;;;;;;6.20;2.70;;;2.20;99.90;;;;;;5091923;28;20089;-49
2022/11/27 01:10:02;;;;;;;7.30;3.13;;;2.20;99.90;;;;;;5093247;28;20119;-50
2022/11/27 01:12:29;;;;;;;8.73;3.63;;;2.20;99.90;;;;;;5093998;28;20396;-48
2022/11/27 01:14:56;;;;;;;6.97;3.72;;;2.20;99.90;;;;;;5093672;28;20075;-48
2022/11/27 01:17:22;;;;;;;8.88;4.15;;;2.30;99.90;;;;;;5093239;28;20103;-48
2022/11/27 01:19:49;;;;;;;8.38;4.20;;;2.30;99.90;;;;;;5093669;28;20039;-48
2022/11/27 01:22:16;;;;;;;10.02;3.67;;;2.30;99.90;;;;;;5093475;28;20036;-48
2022/11/27 01:24:43;;;;;;;8.30;3.20;;;2.30;99.90;;;;;;5091341;28;20043;-48
2022/11/27 01:27:09;;;;;;;6.45;2.60;;;2.30;99.90;;;;;;5093739;28;20047;-48
2022/11/27 01:29:36;;;;;;;7.93;2.92;;;2.20;99.90;;;;;;5093657;28;20565;-48
2022/11/27 01:32:03;;;;;;;5.53;2.50;;;2.10;99.90;;;;;;5092982;28;20048;-48
2022/11/27 01:34:30;;;;;;;4.72;2.92;;;2.10;99.90;;;;;;5093352;28;20069;-49
2022/11/27 01:36:56;;;;;;;4.43;2.25;;;2.10;99.90;;;;;;5093759;28;20068;-47
2022/11/27 01:39:23;;;;;;;9.13;3.40;;;2.00;99.90;;;;;;5093080;28;20366;-49
2022/11/27 01:41:50;;;;;;;6.53;2.40;;;1.90;99.90;;;;;;5092621;28;20036;-48
2022/11/27 01:44:22;;;;;;;6.95;2.75;;;1.90;99.90;;;;;;5093020;28;20089;-50
2022/11/27 01:46:59;;;;;;;4.63;2.47;;;1.90;99.90;;;;;;5093233;28;20044;-48
2022/11/27 01:49:40;;;;;;;4.75;2.30;;;1.90;99.90;;;;;;5093141;28;20048;-48
2022/11/27 01:52:12;;;;;;;10.02;2.40;;;1.80;99.90;;;;;;5088089;28;20048;-50
2022/11/27 01:54:45;;;;;;;5.50;2.10;;;1.80;99.90;;;;;;5078046;28;20067;-47
2022/11/27 01:57:27;;;;;;;4.97;2.58;;;1.80;99.90;;;;;;5079145;28;20492;-47
2022/11/27 01:59:56;;;;;;;5.13;2.33;;;1.80;99.90;;;;;;5077985;28;20583;-46
2022/11/27 02:02:23;;;;;;;4.53;2.30;;;1.80;99.90;;;;;;5075412;28;20064;-48
2022/11/27 02:04:50;;;;;;;8.50;2.83;;;1.80;99.90;;;;;;5078722;28;20042;-48
2022/11/27 02:07:17;;;;;;;;;;;1.80;99.90;;;;;;5082861;28;20064;-48
2022/11/27 02:09:44;;;;;;;4.97;2.80;;;1.80;99.90;;;;;;5080787;28;19920;-49
2022/11/27 02:12:23;;;;;;;9.68;2.80;;;1.70;99.90;;;;;;5090532;28;20068;-50
2022/11/27 02:15:13;;;;;;;6.20;2.70;;;1.70;99.90;;;;;;5091960;28;20524;-48
2022/11/27 02:18:05;;;;;;;6.40;2.30;;;1.70;99.90;;;;;;5087781;28;20511;-48
2022/11/27 02:20:39;;;;;;;6.00;2.35;;;1.70;99.90;;;;;;5090034;28;20071;-48
2022/11/27 02:23:21;;;;;;;6.70;2.80;;;1.70;99.90;;;;;;5089442;28;20040;-47
2022/11/27 02:26:00;;;;;;;7.25;3.00;;;1.60;99.90;;;;;;5090948;28;20040;-47
2022/11/27 02:28:57;;;;;;;9.65;2.60;;;1.60;99.90;;;;;;5090504;28;20048;-48
2022/11/27 02:31:24;;;;;;;7.50;3.05;;;1.60;99.90;;;;;;5089827;28;20043;-49
2022/11/27 02:33:55;;;;;;;7.07;2.63;;;1.50;99.90;;;;;;5080686;28;20055;-47
2022/11/27 02:36:27;;;;;;;5.43;2.67;;;1.50;99.90;;;;;;5074338;28;20570;-47
2022/11/27 02:39:12;;;;;;;5.78;2.50;;;1.50;99.90;;;;;;5072359;28;20669;-47
2022/11/27 02:41:58;;;;;;;7.85;2.72;;;1.50;99.90;;;;;;5083589;28;20070;-49
2022/11/27 02:44:29;;;;;;;10.32;3.28;;;1.50;99.90;;;;;;5073199;28;20408;-49
2022/11/27 02:46:56;;;;;;;5.43;2.70;;;1.50;99.90;;;;;;5078362;28;20476;-50
2022/11/27 02:49:23;;;;;;;9.48;4.60;;;1.50;99.90;;;;;;5072826;28;20044;-49
2022/11/27 02:51:56;;;;;;;9.20;3.90;;;1.50;99.90;;;;;;5076394;28;20036;-49
2022/11/27 02:54:29;;;;;;;6.82;3.30;;;1.50;99.90;;;;;;5079904;28;20118;-48
2022/11/27 02:56:59;;;;;;;11.43;2.90;;;1.50;99.90;;;;;;5071713;28;20113;-49
2022/11/27 02:59:30;;;;;;;7.88;2.97;;;1.50;99.90;;;;;;5074557;28;20032;-48
2022/11/27 03:02:08;;;;;;;7.15;3.28;;;1.50;99.90;;;;;;5074043;28;20029;-49
2022/11/27 03:04:41;;;;;;;4.85;2.65;;;1.40;99.90;;;;;;5072868;28;20048;-49
2022/11/27 03:07:14;;;;;;;5.75;2.58;;;1.40;99.90;;;;;;5074011;28;20094;-50
2022/11/27 03:09:47;;;;;;;5.85;2.30;;;1.40;99.90;;;;;;5078849;28;20162;-48
2022/11/27 03:12:16;;;;;;;4.78;2.75;;;1.30;99.90;;;;;;5081275;28;20109;-49
2022/11/27 03:14:44;;;;;;;6.97;2.67;;;1.30;99.90;;;;;;5090281;28;20511;-48
2022/11/27 03:17:19;;;;;;;11.23;3.22;;;1.30;99.90;;;;;;5091550;28;20117;-47
2022/11/27 03:19:52;;;;;;;8.07;3.08;;;1.30;99.90;;;;;;5091402;28;20036;-48
2022/11/27 03:22:18;;;;;;;6.50;3.42;;;1.30;99.90;;;;;;5076325;28;20119;-49
2022/11/27 03:24:48;;;;;;;6.70;3.38;;;1.30;99.90;;;;;;5087202;28;20059;-48
2022/11/27 03:27:21;;;;;;;7.40;3.67;;;1.30;99.90;;;;;;5086401;28;20044;-49
2022/11/27 03:29:53;;;;;;;10.07;3.92;;;1.30;99.90;;;;;;5090097;28;20067;-51
2022/11/27 03:32:20;;;;;;;11.48;4.95;;;1.60;99.90;;;;;;5082823;28;20515;-48
2022/11/27 03:34:47;;;;;;;;;;;1.40;99.90;;;;;;5069581;28;20095;-49
2022/11/27 03:37:14;;;;;;;10.45;4.72;;;1.50;99.90;;;;;;5090904;28;20392;-50
2022/11/27 03:39:41;;;;;;;12.40;5.05;;;1.50;99.90;;;;;;5090489;28;20070;-48
2022/11/27 03:42:33;;;;;;;14.93;5.38;;;1.50;99.90;;;;;;5090723;28;20033;-50
2022/11/27 03:45:35;;;;;;;13.20;5.35;;;1.50;99.90;;;;;;5091385;28;20066;-48
2022/11/27 03:48:01;;;;;;;12.65;5.80;;;1.50;99.90;;;;;;5013013;28;20072;-49
2022/11/27 03:50:40;;;;;;;14.05;6.15;;;1.50;99.90;;;;;;5068945;28;20137;-49
2022/11/27 03:53:32;;;;;;;17.92;6.22;;;1.50;99.90;;;;;;5090134;28;20558;-48
2022/11/27 03:56:29;;;;;;;13.02;5.63;;;1.50;99.90;;;;;;5090509;28;20131;-48
2022/11/27 03:59:28;;;;;;;14.02;5.82;;;1.50;99.90;;;;;;5088728;28;20165;-48
2022/11/27 04:01:54;;;;;;;7.55;3.60;;;1.50;99.90;;;;;;5086035;28;20056;-49
2022/11/27 04:04:21;;;;;;;14.48;6.22;;;1.40;99.90;;;;;;5091036;28;20567;-48
2022/11/27 04:06:48;;;;;;;9.40;4.15;;;1.50;99.90;;;;;;5090017;28;20516;-48
2022/11/27 04:09:15;;;;;;;16.13;5.57;;;1.40;99.90;;;;;;5082879;28;20040;-50
2022/11/27 04:11:41;;;;;;;8.38;3.65;;;1.40;99.90;;;;;;5089416;28;20101;-48
2022/11/27 04:14:08;;;;;;;11.38;5.43;;;1.40;99.90;;;;;;5090375;28;20134;-48
2022/11/27 04:16:35;;;;;;;13.18;5.45;;;1.40;99.90;;;;;;5089988;28;20062;-48
2022/11/27 04:19:27;;;;;;;13.93;5.65;;;1.30;99.90;;;;;;5101614;22;20119;-48
2022/11/27 04:22:30;;;;;;;11.90;4.95;;;1.30;99.90;;;;;;5072941;28;20500;-44
2022/11/27 04:25:14;;;;;;;10.85;4.38;;;1.30;99.90;;;;;;5045804;28;20044;-47
2022/11/27 04:27:41;;;;;;;11.82;4.65;;;1.30;99.90;;;;;;5090092;28;20036;-47
2022/11/27 04:30:10;;;;;;;7.95;2.97;;;1.20;99.90;;;;;;5089742;28;20508;-48
2022/11/27 04:32:37;;;;;;;10.50;4.47;;;1.30;99.90;;;;;;5070169;28;20127;-48
2022/11/27 04:35:04;;;;;;;11.73;4.70;;;1.30;99.90;;;;;;5067211;28;20136;-47
2022/11/27 04:37:31;;;;;;;9.38;4.22;;;1.30;99.90;;;;;;5070387;28;20128;-48
2022/11/27 04:39:58;;;;;;;8.82;2.97;;;1.30;99.90;;;;;;5069821;28;20128;-50
2022/11/27 04:42:25;;;;;;;17.10;4.95;;;1.30;99.90;;;;;;5068998;28;20048;-47
2022/11/27 04:44:51;;;;;;;10.07;4.53;;;1.30;99.90;;;;;;5069471;28;20067;-47
2022/11/27 04:47:18;;;;;;;6.47;3.15;;;1.30;99.90;;;;;;5069446;28;20028;-48
2022/11/27 04:49:45;;;;;;;12.90;5.03;;;1.20;99.90;;;;;;5069829;28;20072;-48
2022/11/27 04:52:12;;;;;;;11.70;4.90;;;1.20;99.90;;;;;;5069104;28;20040;-47
2022/11/27 04:54:38;;;;;;;9.30;4.43;;;1.20;99.90;;;;;;5069488;28;20527;-47
2022/11/27 04:57:05;;;;;;;;;;;1.20;99.90;;;;;;5070628;28;20413;-47
2022/11/27 04:59:32;;;;;;;10.52;4.00;;;1.20;99.90;;;;;;5068475;28;20019;-48
2022/11/27 05:01:59;;;;;;;9.10;3.42;;;1.10;99.90;;;;;;5070026;28;20080;-47
2022/11/27 05:04:26;;;;;;;10.10;4.72;;;1.10;99.90;;;;;;5068861;28;20052;-47
2022/11/27 05:06:52;;;;;;;9.25;4.40;;;1.10;99.90;;;;;;5067877;28;20102;-47
2022/11/27 05:09:19;;;;;;;9.05;4.50;;;1.10;99.90;;;;;;5068832;28;20556;-47
2022/11/27 05:11:47;;;;;;;5.15;2.95;;;1.10;99.90;;;;;;5070232;28;20079;-47
2022/11/27 05:14:13;;;;;;;10.13;3.95;;;1.00;99.90;;;;;;5067964;28;20064;-47
2022/11/27 05:16:41;;;;;;;9.30;3.78;;;1.00;99.90;;;;;;5070417;28;20124;-47
2022/11/27 05:19:09;;;;;;;8.55;4.13;;;0.90;99.90;;;;;;5065826;28;20087;-47
2022/11/27 05:21:37;;;;;;;9.95;4.45;;;0.90;99.90;;;;;;5065695;28;20507;-47
2022/11/27 05:24:04;;;;;;;8.93;4.38;;;0.90;99.90;;;;;;5068108;28;20099;-47
2022/11/27 05:26:31;;;;;;;10.43;4.47;;;0.90;99.90;;;;;;5068629;28;20041;-47
2022/11/27 05:28:58;;;;;;;9.77;4.80;;;0.90;99.90;;;;;;5068432;28;20033;-48
2022/11/27 05:31:24;;;;;;;8.93;4.07;;;0.90;99.90;;;;;;5069621;28;20072;-47
2022/11/27 05:33:51;;;;;;;9.15;4.32;;;0.90;99.90;;;;;;5065920;28;20040;-47
2022/11/27 05:36:18;;;;;;;9.50;4.18;;;0.80;99.90;;;;;;5052200;28;20501;-47
2022/11/27 05:38:45;;;;;;;9.75;4.25;;;0.80;99.90;;;;;;5065197;28;20095;-47
2022/11/27 05:41:12;;;;;;;12.63;4.82;;;0.80;99.90;;;;;;5069667;28;20562;-47
2022/11/27 05:43:40;;;;;;;9.15;4.38;;;0.90;99.90;;;;;;5067297;28;20070;-47
2022/11/27 05:46:10;;;;;;;9.38;3.95;;;0.90;99.90;;;;;;5069238;28;20044;-47
2022/11/27 05:48:37;;;;;;;10.68;4.70;;;0.90;99.90;;;;;;5067512;28;20111;-50
2022/11/27 05:51:04;;;;;;;11.40;4.75;;;0.90;99.90;;;;;;5069531;28;20063;-48
2022/11/27 05:53:31;;;;;;;9.75;4.55;;;0.90;99.90;;;;;;5065408;28;20040;-46
2022/11/27 05:56:03;;;;;;;11.18;4.00;;;0.90;99.90;;;;;;5073609;28;20075;-47
2022/11/27 05:58:30;;;;;;;9.68;4.80;;;0.90;99.90;;;;;;5071949;28;20072;-48
2022/11/27 06:00:57;;;;;;;8.98;4.13;;;0.80;99.90;;;;;;5072480;28;20064;-46
2022/11/27 06:03:24;;;;;;;8.93;4.65;;;0.80;99.90;;;;;;5072585;28;20086;-47
2022/11/27 06:05:52;;;;;;;10.65;4.68;;;0.70;99.90;;;;;;5072322;28;20115;-47
2022/11/27 06:08:18;;;;;;;;;;;0.70;99.90;;;;;;5070834;28;20071;-46
2022/11/27 06:10:46;;;;;;;13.00;5.35;;;0.70;99.90;;;;;;5069186;28;20007;-47
2022/11/27 06:13:13;;;;;;;10.68;5.35;;;0.70;99.90;;;;;;5072614;28;20052;-47
2022/11/27 06:15:41;;;;;;;9.90;4.28;;;0.60;99.90;;;;;;5071674;28;20044;-47
2022/11/27 06:18:10;;;;;;;13.27;5.88;;;0.60;99.90;;;;;;5072525;28;20044;-47
2022/11/27 06:20:37;;;;;;;11.60;5.63;;;0.60;99.90;;;;;;5072897;28;20523;-46
2022/11/27 06:23:09;;;;;;;11.55;5.75;;;0.60;99.90;;;;;;5068145;28;20048;-46
2022/11/27 06:25:36;;;;;;;8.15;4.57;;;0.60;99.90;;;;;;5072415;28;20556;-46
2022/11/27 06:28:03;;;;;;;8.88;4.40;;;0.60;99.90;;;;;;5072831;28;20068;-47
2022/11/27 06:30:30;;;;;;;14.65;6.03;;;0.60;99.90;;;;;;5072354;28;20094;-46
2022/11/27 06:32:56;;;;;;;9.45;4.93;;;0.60;99.90;;;;;;5067767;28;20064;-47
2022/11/27 06:35:23;;;;;;;8.77;3.88;;;0.60;99.90;;;;;;5071997;28;20123;-47
2022/11/27 06:37:50;;;;;;;7.90;3.75;;;0.60;99.90;;;;;;5073282;28;20060;-47
2022/11/27 06:40:17;;;;;;;9.00;4.75;;;0.60;99.90;;;;;;5070500;28;20068;-47
2022/11/27 06:42:43;;;;;;;9.05;4.97;;;0.60;99.90;;;;;;5067295;28;20064;-47
2022/11/27 06:45:10;;;;;;;9.88;4.82;;;0.50;99.90;;;;;;5071406;28;20040;-47
2022/11/27 06:47:37;;;;;;;15.50;8.32;;;0.50;99.90;;;;;;5071369;28;20044;-48
2022/11/27 06:50:04;;;;;;;13.07;6.70;;;0.60;99.90;;;;;;5071099;28;20467;-47
2022/11/27 06:52:31;;;;;;;;;;;0.60;99.90;;;;;;5066236;28;20028;-48
2022/11/27 06:55:06;;;;;;;11.60;5.32;;;0.60;99.90;;;;;;5071601;28;19927;-47
2022/11/27 06:57:32;;;;;;;10.63;4.65;;;0.60;99.90;;;;;;5069807;28;20052;-47
2022/11/27 06:59:59;;;;;;;13.57;5.70;;;0.60;99.90;;;;;;5069135;28;20110;-47
2022/11/27 07:02:26;;;;;;;6.32;3.42;;;0.60;99.90;;;;;;5071751;28;20076;-47
2022/11/27 07:04:52;;;;;;;12.05;5.00;;;0.60;99.90;;;;;;5070387;28;20053;-47
2022/11/27 07:07:19;;;;;;;13.75;4.72;;;0.60;99.90;;;;;;5067448;28;20074;-47
2022/11/27 07:09:46;;;;;;;11.05;4.88;;;0.60;99.90;;;;;;5071275;28;20041;-47
2022/11/27 07:12:13;;;;;;;8.00;3.22;;;0.60;99.90;;;;;;5072253;28;20064;-48
2022/11/27 07:14:40;;;;;;;14.80;5.10;;;0.60;99.90;;;;;;5066465;28;20045;-47
2022/11/27 07:17:07;;;;;;;8.85;4.07;;;0.60;99.90;;;;;;5071800;28;20040;-47
2022/11/27 07:19:34;;;;;;;10.40;3.90;;;0.70;99.90;;;;;;5075410;28;20071;-47
2022/11/27 07:22:01;;;;;;;9.90;4.10;;;0.70;99.90;;;;;;5073816;28;20037;-48
2022/11/27 07:24:29;;;;;;;9.98;4.18;;;0.80;99.90;;;;;;5046557;28;20418;-47
2022/11/27 07:26:55;;;;;;;8.32;4.00;;;0.90;99.90;;;;;;5089578;28;20472;-47
2022/11/27 07:29:22;;;;;;;7.07;3.10;;;0.90;99.90;;;;;;5079179;28;20064;-48
2022/11/27 07:31:50;;;;;;;7.32;3.75;;;1.00;99.90;;;;;;5065135;28;20068;-47
2022/11/27 07:34:17;;;;;;;7.80;3.30;;;1.00;99.90;;;;;;5071192;28;20464;-46
2022/11/27 07:36:47;;;;;;;8.75;4.05;;;1.00;99.90;;;;;;5071739;28;20052;-48
2022/11/27 07:39:16;;;;;;;11.45;3.83;;;1.00;99.90;;;;;;5069340;28;20559;-47
2022/11/27 07:41:59;;;;;;;11.77;4.43;;;1.10;99.90;;;;;;5071064;28;20050;-47
2022/11/27 07:44:46;;;;;;;10.52;4.35;;;1.10;99.90;;;;;;5070192;28;20064;-47
2022/11/27 07:47:13;;;;;;;10.00;4.25;;;1.10;99.90;;;;;;5064009;28;20499;-47
2022/11/27 07:49:40;;;;;;;9.88;4.05;;;1.10;99.90;;;;;;5071241;28;20075;-47
2022/11/27 07:52:07;;;;;;;12.45;4.90;;;1.20;99.90;;;;;;5069060;28;20075;-47
2022/11/27 07:54:34;;;;;;;11.63;4.57;;;1.10;99.90;;;;;;5071555;28;20094;-47
2022/11/27 07:57:01;;;;;;;11.15;5.95;;;1.00;99.90;;;;;;5069268;28;20045;-47
2022/11/27 07:59:28;;;;;;;10.00;4.75;;;0.90;99.90;;;;;;5071716;28;20068;-47
2022/11/27 08:01:55;;;;;;;13.98;6.32;;;0.90;99.90;;;;;;5070134;28;20049;-47
2022/11/27 08:04:22;;;;;;;12.02;5.47;;;0.80;99.90;;;;;;5066789;28;20067;-47
2022/11/27 08:06:49;;;;;;;16.42;8.60;;;0.80;99.90;;;;;;5068946;28;20128;-50
2022/11/27 08:09:15;;;;;;;17.17;8.38;;;0.70;99.90;;;;;;5071023;28;20087;-46
2022/11/27 08:11:42;;;;;;;20.98;8.38;;;0.70;99.90;;;;;;5068907;28;20416;-46
2022/11/27 08:14:11;;;;;;;12.05;5.90;;;0.70;99.90;;;;;;5071157;28;20587;-46
2022/11/27 08:16:38;;;;;;;14.90;7.20;;;0.70;99.90;;;;;;5069240;28;20064;-47
2022/11/27 08:19:05;;;;;;;13.90;7.07;;;0.80;99.90;;;;;;5070881;28;20098;-47
2022/11/27 08:21:32;;;;;;;21.15;8.80;;;0.80;99.90;;;;;;5047914;28;20577;-47
2022/11/27 08:23:58;;;;;;;13.90;5.20;;;1.00;99.90;;;;;;5071239;28;20040;-46
2022/11/27 08:26:28;;;;;;;9.20;4.85;;;1.20;99.90;;;;;;5061494;28;20508;-48
2022/11/27 08:28:56;;;;;;;18.13;7.97;;;1.30;99.90;;;;;;5059327;28;20121;-47
2022/11/27 08:31:23;;;;;;;25.98;12.63;;;1.50;99.90;;;;;;5060931;28;20069;-47
2022/11/27 08:33:50;;;;;;;14.57;7.20;;;1.70;99.90;;;;;;5049941;28;20432;-47
2022/11/27 08:36:17;;;;;;;19.35;8.95;;;1.70;99.90;;;;;;5058584;28;20400;-47
2022/11/27 08:38:45;;;;;;;15.52;7.35;;;1.80;99.90;;;;;;5068352;28;20040;-47
2022/11/27 08:41:11;;;;;;;14.27;7.35;;;1.90;99.90;;;;;;5070038;28;20045;-47
2022/11/27 08:43:38;;;;;;;21.52;7.13;;;2.00;99.90;;;;;;5070834;28;20068;-47
2022/11/27 08:46:06;;;;;;;16.15;7.15;;;2.10;99.90;;;;;;5068386;28;20084;-47
2022/11/27 08:48:33;;;;;;;16.42;7.95;;;2.20;99.90;;;;;;5070336;28;20587;-47
2022/11/27 08:51:05;;;;;;;17.30;7.50;;;2.30;99.90;;;;;;5051078;28;20483;-48
2022/11/27 08:53:31;;;;;;;16.10;6.93;;;2.50;99.90;;;;;;5070691;28;20469;-47
2022/11/27 08:56:08;;;;;;;23.75;11.13;;;2.50;99.90;;;;;;5051172;28;20519;-47
2022/11/27 08:58:35;;;;;;;18.00;8.50;;;2.60;99.90;;;;;;5070561;28;20072;-47
2022/11/27 09:01:29;;;;;;;5.82;2.97;;;2.70;99.90;;;;;;5050293;28;20106;-48
2022/11/27 09:03:56;;;;;;;6.30;3.45;;;2.70;99.90;;;;;;5070145;28;20438;-47
2022/11/27 09:06:29;;;;;;;4.22;2.70;;;2.90;99.90;;;;;;5069527;28;20040;-47
2022/11/27 09:09:00;;;;;;;7.18;3.20;;;3.00;99.90;;;;;;5069664;28;20045;-48
2022/11/27 09:11:32;;;;;;;5.88;2.78;;;3.10;99.90;;;;;;5064211;28;20067;-48
2022/11/27 09:14:00;;;;;;;5.43;2.45;;;3.10;99.90;;;;;;5069368;28;20064;-48
2022/11/27 09:16:28;;;;;;;4.93;2.40;;;3.20;99.90;;;;;;5069757;28;20439;-48
2022/11/27 09:18:56;;;;;;;10.02;2.40;;;3.30;99.90;;;;;;5068773;28;20139;-47
2022/11/27 09:21:29;;;;;;;13.55;3.08;;;3.30;99.90;;;;;;5070141;28;20080;-47
2022/11/27 09:23:58;;;;;;;7.63;2.33;;;3.30;99.90;;;;;;5068553;28;20072;-47
2022/11/27 09:26:25;;;;;;;16.55;4.05;;;3.40;99.90;;;;;;5070641;28;20080;-47
2022/11/27 09:28:52;;;;;;;;;;;3.40;99.90;;;;;;5070451;28;20060;-48
2022/11/27 09:31:20;;;;;;;8.30;2.85;;;3.50;99.90;;;;;;5073306;28;19963;-47
2022/11/27 09:33:47;;;;;;;10.70;2.35;;;3.50;99.90;;;;;;5072750;28;20094;-47
2022/11/27 09:36:17;;;;;;;14.20;3.83;;;3.50;99.90;;;;;;5074010;28;20071;-47
2022/11/27 09:38:44;;;;;;;9.07;3.50;;;3.50;99.90;;;;;;5073014;28;20045;-47
2022/11/27 09:41:20;;;;;;;6.07;2.80;;;3.60;99.90;;;;;;5068801;28;20072;-47
2022/11/27 09:43:58;;;;;;;6.90;2.60;;;3.60;99.90;;;;;;5071255;28;20072;-49
2022/11/27 09:46:33;;;;;;;15.77;4.35;;;3.70;99.90;;;;;;5072815;28;20072;-47
2022/11/27 09:49:03;;;;;;;9.00;3.72;;;3.60;99.90;;;;;;5072792;28;20062;-46
2022/11/27 09:51:33;;;;;;;8.07;3.00;;;3.70;99.90;;;;;;5070340;28;20037;-47
2022/11/27 09:54:15;;;;;;;7.20;3.78;;;3.70;99.90;;;;;;5073128;28;20045;-46
2022/11/27 09:56:47;;;;;;;6.60;2.10;;;3.70;99.90;;;;;;5073362;28;20063;-47
2022/11/27 09:59:17;;;;;;;27.55;8.00;;;3.80;99.90;;;;;;5062329;28;20094;-48
2022/11/27 10:01:45;;;;;;;6.60;3.13;;;3.90;99.90;;;;;;5054187;28;20894;-47
2022/11/27 10:04:18;;;;;;;8.85;2.30;;;3.90;99.90;;;;;;5062764;28;20449;-47
2022/11/27 10:07:10;;;;;;;3.70;2.22;;;4.00;99.90;;;;;;5061253;28;20618;-48
2022/11/27 10:10:09;;;;;;;5.65;1.88;;;4.20;99.90;;;;;;5067968;28;20044;-50
2022/11/27 10:12:43;;;;;;;3.28;1.77;;;4.30;99.90;;;;;;5068417;28;20067;-47
2022/11/27 10:15:10;;;;;;;4.25;1.73;;;4.40;99.90;;;;;;5070971;28;20099;-48
2022/11/27 10:17:42;;;;;;;4.28;1.60;;;4.40;99.90;;;;;;5067025;28;20068;-47
2022/11/27 10:20:22;;;;;;;3.65;1.50;;;4.40;99.90;;;;;;5073072;28;20110;-47
2022/11/27 10:23:00;;;;;;;5.40;2.22;;;4.40;99.90;;;;;;5072114;28;20040;-47
2022/11/27 10:25:45;;;;;;;7.97;3.67;;;4.50;99.90;;;;;;5067053;28;20067;-47
2022/11/27 10:28:35;;;;;;;3.70;1.80;;;4.50;99.90;;;;;;5073094;28;20076;-48
2022/11/27 10:31:45;;;;;;;3.97;1.60;;;4.60;99.90;;;;;;5057702;28;20045;-49
2022/11/27 10:34:24;;;;;;;2.45;1.60;;;4.60;99.90;;;;;;5053252;28;20041;-47
2022/11/27 10:36:55;;;;;;;9.30;3.88;;;4.70;99.90;;;;;;5039242;28;20045;-49
2022/11/27 10:39:31;;;;;;;6.30;2.30;;;4.80;99.90;;;;;;5040819;28;20494;-48
2022/11/27 10:42:23;;;;;;;9.50;3.50;;;4.80;99.90;;;;;;5049599;28;20124;-47
2022/11/27 10:45:03;;;;;;;6.47;3.45;;;4.80;99.90;;;;;;5018390;28;20060;-47
2022/11/27 10:47:30;;;;;;;6.60;3.40;;;4.90;99.90;;;;;;5032463;28;20076;-47
2022/11/27 10:50:00;;;;;;;7.72;3.20;;;4.80;99.90;;;;;;5033891;28;20052;-48
2022/11/27 10:52:27;;;;;;;10.10;4.03;;;4.80;99.90;;;;;;5051698;28;20203;-47
2022/11/27 10:55:01;;;;;;;9.15;3.92;;;4.80;99.90;;;;;;5051562;28;20076;-47
2022/11/27 10:57:40;;;;;;;6.13;2.60;;;4.90;99.90;;;;;;5052933;28;20092;-48
2022/11/27 11:00:13;;;;;;;7.40;3.42;;;4.90;99.90;;;;;;5035001;28;20136;-46
2022/11/27 11:02:41;;;;;;;7.60;2.53;;;4.90;99.90;;;;;;5032021;28;20129;-48
2022/11/27 11:05:12;;;;;;;;;;;5.10;99.90;;;;;;5040154;28;20049;-48
2022/11/27 11:08:05;;;;;;;4.65;2.05;;;5.20;99.90;;;;;;5034761;28;19927;-49
2022/11/27 11:10:43;;;;;;;3.45;1.48;;;5.30;99.90;;;;;;5048302;28;20076;-47
2022/11/27 11:13:26;;;;;;;10.30;3.80;;;5.20;99.90;;;;;;5051521;28;20103;-49
2022/11/27 11:16:04;;;;;;;6.60;2.38;;;5.20;99.90;;;;;;5041222;28;20045;-47
2022/11/27 11:18:33;;;;;;;5.60;2.78;;;5.20;99.90;;;;;;5032535;28;20061;-47
2022/11/27 11:21:06;;;;;;;3.88;1.40;;;5.30;99.90;;;;;;5050680;28;20060;-47
2022/11/27 11:23:37;;;;;;;4.35;1.80;;;5.20;99.90;;;;;;5047286;28;20041;-48
2022/11/27 11:26:34;;;;;;;7.78;2.53;;;5.20;99.90;;;;;;5051456;28;20083;-49
2022/11/27 11:29:05;;;;;;;3.60;1.75;;;5.20;99.90;;;;;;5028316;28;20045;-47
2022/11/27 11:31:38;;;;;;;9.88;2.95;;;5.30;99.90;;;;;;5030589;28;20068;-48
2022/11/27 11:34:12;;;;;;;7.93;3.50;;;5.40;99.90;;;;;;5037380;28;20032;-49
2022/11/27 11:36:41;;;;;;;7.88;2.78;;;5.40;99.90;;;;;;5036667;28;20091;-47
2022/11/27 11:39:25;;;;;;;5.18;2.35;;;5.50;99.90;;;;;;5041879;28;20051;-47
2022/11/27 11:41:52;;;;;;;5.45;2.30;;;5.50;99.90;;;;;;5051318;28;20049;-47
2022/11/27 11:44:39;;;;;;;4.97;2.17;;;5.70;99.90;;;;;;5050273;28;20076;-50
2022/11/27 11:47:17;;;;;;;3.47;2.03;;;5.70;99.90;;;;;;5048976;28;20497;-48
2022/11/27 11:49:44;;;;;;;4.38;1.80;;;5.80;99.90;;;;;;5034693;28;20041;-51
2022/11/27 11:52:20;;;;;;;3.30;1.70;;;5.90;99.90;;;;;;5028584;28;20050;-50
2022/11/27 11:55:43;;;;;;;4.38;1.95;;;6.00;99.90;;;;;;5031447;28;20045;-47
2022/11/27 11:58:20;;;;;;;4.50;1.60;;;6.10;99.90;;;;;;4942361;29;20086;-47
2022/11/27 12:01:13;;;;;;;3.70;1.65;;;6.10;99.90;;;;;;5020977;28;20118;-49
2022/11/27 12:04:04;;;;;;;6.77;2.00;;;6.10;99.90;;;;;;5024713;28;20138;-47
2022/11/27 12:06:40;;;;;;;3.55;1.77;;;6.00;99.90;;;;;;5030773;28;20035;-48
2022/11/27 12:09:20;;;;;;;6.57;1.80;;;6.00;99.90;;;;;;5031215;28;20405;-48
2022/11/27 12:11:47;;;;;;;3.78;1.83;;;6.00;99.90;;;;;;5032274;28;20111;-48
2022/11/27 12:14:42;;;;;;;5.90;1.92;;;6.10;99.90;;;;;;5051377;28;20162;-47
2022/11/27 12:17:18;;;;;;;5.05;1.77;;;6.20;99.90;;;;;;5049550;28;20041;-47
2022/11/27 12:20:16;;;;;;;5.85;1.83;;;6.20;99.90;;;;;;5050697;28;20044;-47
2022/11/27 12:23:01;;;;;;;4.93;2.10;;;6.30;99.90;;;;;;5047403;28;20394;-47
2022/11/27 12:25:52;;;;;;;5.30;1.95;;;6.30;99.90;;;;;;5049672;28;20064;-47
2022/11/27 12:28:38;;;;;;;5.38;2.08;;;6.20;99.90;;;;;;5047632;28;20394;-47
2022/11/27 12:31:08;;;;;;;3.58;1.85;;;6.30;99.90;;;;;;5048812;28;20456;-47
2022/11/27 12:34:02;;;;;;;6.05;2.13;;;6.20;99.90;;;;;;5048391;28;20049;-50
2022/11/27 12:36:40;;;;;;;3.17;1.98;;;6.20;99.90;;;;;;5048154;28;20048;-47
2022/11/27 12:39:09;;;;;;;3.47;1.35;;;6.30;99.90;;;;;;5048605;28;20496;-48
2022/11/27 12:42:24;;;;;;;2.60;1.73;;;6.40;99.90;;;;;;5047788;28;20037;-49
2022/11/27 12:45:15;;;;;;;4.13;1.55;;;6.40;99.90;;;;;;5028669;28;21041;-47
2022/11/27 12:47:47;;;;;;;4.63;1.92;;;6.40;99.90;;;;;;5048979;28;20076;-48
2022/11/27 12:50:26;;;;;;;7.32;1.90;;;6.40;99.90;;;;;;5048610;28;20040;-48
2022/11/27 12:53:03;;;;;;;4.38;2.28;;;6.30;99.90;;;;;;5048564;28;20080;-48
2022/11/27 12:55:32;;;;;;;6.50;1.73;;;6.30;99.90;;;;;;5048071;28;20098;-49
2022/11/27 12:58:06;;;;;;;3.10;1.42;;;6.30;99.90;;;;;;5049541;28;20106;-48
2022/11/27 13:00:36;;;;;;;2.70;1.42;;;6.40;99.90;;;;;;5047412;28;20037;-49
2022/11/27 13:03:27;;;;;;;2.58;1.70;;;6.40;99.90;;;;;;5048847;28;20041;-48
2022/11/27 13:06:05;;;;;;;6.28;2.38;;;6.40;99.90;;;;;;5053229;28;20504;-47
2022/11/27 13:09:00;;;;;;;5.78;1.90;;;6.40;99.90;;;;;;5052226;28;20500;-48
2022/11/27 13:11:36;;;;;;;2.67;1.67;;;6.50;99.90;;;;;;5052877;28;20094;-48
2022/11/27 13:14:17;;;;;;;3.60;2.10;;;6.40;99.90;;;;;;5051013;28;20469;-49
2022/11/27 13:16:49;;;;;;;3.25;1.73;;;6.40;99.90;;;;;;5053510;28;20041;-49
2022/11/27 13:19:35;;;;;;;8.20;2.92;;;6.50;99.90;;;;;;5052955;28;20580;-47
2022/11/27 13:22:13;;;;;;;7.05;3.45;;;6.50;99.90;;;;;;5046854;28;20567;-48